Time;durP1;ratioP1;P1;durP2;ratioP2;P2;SDS_P1;SDS_P2;PMS_P1;PMS_P2;Temp;Humidity;BMP_temperature;BMP_pressure;BME280_temperature;BME280_humidity;BME280_pressure;Samples;Min_cycle;Max_cycle;Signal;HPM_P1;HPM_P2
2021/08/26 00:00:27;;;;;;;11.85;10.52;;;18.50;99.90;;;;;;5055581;28;20029;-49
2021/08/26 00:05:50;;;;;;;11.68;10.52;;;18.60;99.90;;;;;;5056660;28;20545;-48
2021/08/26 00:08:21;;;;;;;13.50;10.52;;;18.50;99.90;;;;;;5010824;28;20094;-47
2021/08/26 00:10:48;;;;;;;13.25;10.45;;;18.50;99.90;;;;;;5021611;28;20396;-47
2021/08/26 00:13:17;;;;;;;12.18;10.52;;;18.50;99.90;;;;;;5056506;28;20025;-49
2021/08/26 00:15:46;;;;;;;12.25;10.95;;;18.60;99.90;;;;;;5021218;28;20073;-46
2021/08/26 00:18:12;;;;;;;14.55;10.93;;;18.60;99.90;;;;;;5056365;28;20599;-47
2021/08/26 00:20:38;;;;;;;16.25;11.43;;;18.50;99.90;;;;;;5056197;28;20029;-49
2021/08/26 00:23:05;;;;;;;13.57;11.40;;;18.60;99.90;;;;;;5021290;28;20082;-47
2021/08/26 00:25:31;;;;;;;11.27;10.15;;;18.60;99.90;;;;;;5054620;28;20021;-47
2021/08/26 00:27:57;;;;;;;12.73;11.52;;;18.60;99.90;;;;;;5055508;28;20051;-49
2021/08/26 00:30:23;;;;;;;13.55;11.30;;;18.60;99.90;;;;;;5055339;28;20449;-47
2021/08/26 00:32:49;;;;;;;13.68;10.95;;;18.60;99.90;;;;;;5054486;28;20098;-47
2021/08/26 00:35:14;;;;;;;14.23;11.27;;;18.50;99.90;;;;;;5020066;28;20098;-50
2021/08/26 00:37:40;;;;;;;13.25;11.80;;;18.50;99.90;;;;;;5056058;28;20412;-48
2021/08/26 00:40:06;;;;;;;12.95;11.60;;;18.50;99.90;;;;;;5055914;28;20024;-47
2021/08/26 00:42:32;;;;;;;13.88;11.88;;;18.50;99.90;;;;;;5004515;28;20366;-49
2021/08/26 00:44:58;;;;;;;12.65;10.85;;;18.50;99.90;;;;;;5055769;28;20031;-49
2021/08/26 00:47:27;;;;;;;12.65;10.77;;;18.50;99.90;;;;;;5055782;28;20029;-47
2021/08/26 00:49:56;;;;;;;13.27;10.73;;;18.50;99.90;;;;;;5055823;28;20025;-49
2021/08/26 00:52:24;;;;;;;16.50;11.18;;;18.50;99.90;;;;;;5037409;28;20032;-47
2021/08/26 00:54:49;;;;;;;14.18;10.80;;;18.50;99.90;;;;;;5054581;28;20091;-49
2021/08/26 00:57:15;;;;;;;13.27;11.35;;;18.50;99.90;;;;;;5054780;28;20033;-49
2021/08/26 00:59:42;;;;;;;13.02;11.07;;;18.50;99.90;;;;;;5035946;28;20033;-49
2021/08/26 01:02:37;;;;;;;13.20;11.23;;;18.50;99.90;;;;;;5054135;28;20021;-49
2021/08/26 01:05:07;;;;;;;14.25;11.38;;;18.50;99.90;;;;;;5054111;28;20073;-48
2021/08/26 01:07:59;;;;;;;14.75;10.50;;;18.50;99.90;;;;;;5055333;28;20036;-50
2021/08/26 01:10:25;;;;;;;13.10;10.80;;;18.40;99.90;;;;;;5039666;28;20036;-49
2021/08/26 01:12:55;;;;;;;12.40;11.00;;;18.40;99.90;;;;;;5036754;28;20049;-49
2021/08/26 01:15:23;;;;;;;14.27;11.15;;;18.40;99.90;;;;;;5054755;28;20140;-50
2021/08/26 01:17:48;;;;;;;13.20;11.77;;;18.40;99.90;;;;;;5054002;28;20032;-49
2021/08/26 01:20:15;;;;;;;16.35;12.52;;;18.50;99.90;;;;;;5054064;28;20083;-49
2021/08/26 01:22:41;;;;;;;14.88;13.07;;;18.40;99.90;;;;;;5054042;28;20060;-49
2021/08/26 01:25:09;;;;;;;13.80;11.88;;;18.40;99.90;;;;;;5054493;28;20029;-49
2021/08/26 01:27:41;;;;;;;17.08;13.18;;;18.30;99.90;;;;;;5019967;28;20123;-50
2021/08/26 01:30:09;;;;;;;18.65;14.75;;;18.10;99.90;;;;;;5014948;28;20072;-48
2021/08/26 01:32:36;;;;;;;15.60;13.27;;;18.10;99.90;;;;;;5017907;28;20037;-48
2021/08/26 01:35:04;;;;;;;15.27;12.45;;;18.10;99.90;;;;;;5054328;28;20079;-47
2021/08/26 01:37:30;;;;;;;20.73;12.95;;;18.10;99.90;;;;;;5019845;28;20041;-50
2021/08/26 01:39:56;;;;;;;15.45;13.27;;;18.10;99.90;;;;;;5054951;28;20538;-48
2021/08/26 01:42:24;;;;;;;15.68;12.77;;;18.00;99.90;;;;;;5054852;28;20020;-48
2021/08/26 01:44:50;;;;;;;16.05;14.25;;;18.10;99.90;;;;;;5054356;28;20032;-47
2021/08/26 01:47:18;;;;;;;16.73;12.68;;;18.20;99.90;;;;;;5055173;28;20036;-47
2021/08/26 01:49:46;;;;;;;15.80;12.55;;;18.20;99.90;;;;;;5054708;28;20033;-49
2021/08/26 01:52:17;;;;;;;14.82;12.73;;;18.10;99.90;;;;;;4987389;28;20425;-47
2021/08/26 01:55:00;;;;;;;15.10;12.32;;;18.00;99.90;;;;;;5050093;28;20080;-49
2021/08/26 01:57:28;;;;;;;15.88;13.15;;;18.00;99.90;;;;;;5010901;28;20052;-47
2021/08/26 01:59:54;;;;;;;15.85;13.10;;;18.00;99.90;;;;;;5011772;28;20181;-48
2021/08/26 02:02:20;;;;;;;16.85;13.48;;;18.00;99.90;;;;;;5011632;28;20485;-47
2021/08/26 02:04:46;;;;;;;16.83;13.23;;;18.10;99.90;;;;;;4979229;28;20117;-46
2021/08/26 02:07:12;;;;;;;17.17;12.70;;;18.10;99.90;;;;;;5011564;28;20053;-48
2021/08/26 02:09:38;;;;;;;17.45;13.10;;;18.20;99.90;;;;;;5011435;28;20030;-50
2021/08/26 02:12:04;;;;;;;16.65;13.07;;;18.20;99.90;;;;;;4959414;28;20046;-49
2021/08/26 02:14:31;;;;;;;16.13;13.00;;;18.00;99.90;;;;;;4971383;28;20073;-47
2021/08/26 02:16:57;;;;;;;15.93;12.68;;;17.90;99.90;;;;;;5011437;28;20042;-47
2021/08/26 02:19:23;;;;;;;17.50;13.23;;;17.80;99.90;;;;;;5011339;28;20496;-48
2021/08/26 02:21:49;;;;;;;16.00;12.68;;;17.70;99.90;;;;;;5011734;28;20034;-48
2021/08/26 02:24:14;;;;;;;18.08;13.38;;;17.70;99.90;;;;;;4995132;28;20045;-46
2021/08/26 02:26:40;;;;;;;16.00;13.40;;;17.60;99.90;;;;;;4994706;28;20121;-48
2021/08/26 02:29:06;;;;;;;16.38;13.50;;;17.50;99.90;;;;;;5008107;28;20037;-47
2021/08/26 02:31:32;;;;;;;18.40;13.82;;;17.40;99.90;;;;;;5052911;28;20111;-46
2021/08/26 02:33:58;;;;;;;20.52;14.77;;;17.40;99.90;;;;;;5052840;28;20045;-50
2021/08/26 02:36:24;;;;;;;15.77;14.00;;;17.60;99.90;;;;;;5052826;28;20037;-48
2021/08/26 02:38:50;;;;;;;18.27;14.27;;;17.70;99.90;;;;;;5052267;28;20033;-49
2021/08/26 02:41:17;;;;;;;19.63;14.07;;;17.80;99.90;;;;;;5053361;28;20400;-48
2021/08/26 02:43:43;;;;;;;17.20;13.73;;;17.90;99.90;;;;;;5053575;28;20029;-50
2021/08/26 02:46:09;;;;;;;21.15;15.38;;;17.90;99.90;;;;;;5053679;28;20079;-48
2021/08/26 02:48:35;;;;;;;18.13;14.07;;;18.00;99.90;;;;;;5053673;28;20477;-50
2021/08/26 02:51:02;;;;;;;19.25;14.98;;;18.00;99.90;;;;;;5045943;28;20028;-50
2021/08/26 02:53:27;;;;;;;20.60;14.32;;;18.00;99.90;;;;;;5043653;28;20496;-50
2021/08/26 02:55:53;;;;;;;19.40;14.85;;;17.90;99.90;;;;;;5038853;28;20041;-51
2021/08/26 02:58:19;;;;;;;18.27;13.85;;;17.70;99.90;;;;;;5032161;28;20038;-48
2021/08/26 03:00:45;;;;;;;21.08;14.48;;;17.60;99.90;;;;;;5042479;28;20171;-49
2021/08/26 03:03:11;;;;;;;18.02;14.00;;;17.60;99.90;;;;;;5033426;28;20469;-53
2021/08/26 03:05:36;;;;;;;16.52;13.80;;;17.80;99.90;;;;;;5030700;28;20049;-52
2021/08/26 03:08:02;;;;;;;21.52;15.13;;;17.90;99.90;;;;;;5046645;28;20028;-52
2021/08/26 03:10:29;;;;;;;20.58;14.27;;;17.90;99.90;;;;;;5017252;28;20625;-49
2021/08/26 03:12:55;;;;;;;17.63;14.30;;;18.00;99.90;;;;;;5013540;28;20469;-50
2021/08/26 03:15:21;;;;;;;18.33;13.52;;;18.10;99.90;;;;;;5046575;28;20094;-50
2021/08/26 03:17:47;;;;;;;17.63;13.90;;;18.00;99.90;;;;;;5042202;28;20396;-51
2021/08/26 03:20:13;;;;;;;20.02;13.68;;;18.00;99.90;;;;;;5052419;28;20112;-48
2021/08/26 03:22:39;;;;;;;18.45;14.23;;;18.00;99.90;;;;;;5052190;28;20020;-48
2021/08/26 03:25:06;;;;;;;22.08;14.23;;;18.00;99.90;;;;;;5052904;28;20071;-48
2021/08/26 03:27:32;;;;;;;16.25;13.88;;;18.10;99.90;;;;;;5052183;28;20108;-49
2021/08/26 03:29:58;;;;;;;18.00;13.52;;;18.00;99.90;;;;;;5014229;28;20129;-49
2021/08/26 03:32:24;;;;;;;19.48;13.68;;;18.00;99.90;;;;;;5049821;28;20029;-51
2021/08/26 03:34:50;;;;;;;17.73;14.25;;;18.10;99.90;;;;;;5052404;28;20033;-51
2021/08/26 03:37:16;;;;;;;19.67;13.77;;;18.00;99.90;;;;;;4977311;28;20089;-49
2021/08/26 03:39:42;;;;;;;25.40;14.95;;;18.10;99.90;;;;;;5009881;28;20066;-51
2021/08/26 03:42:08;;;;;;;17.90;13.82;;;18.00;99.90;;;;;;5010949;28;20034;-51
2021/08/26 03:44:34;;;;;;;20.90;14.43;;;18.00;99.90;;;;;;4993762;28;20046;-48
2021/08/26 03:47:00;;;;;;;17.65;13.75;;;17.90;99.90;;;;;;5010759;28;20097;-51
2021/08/26 03:49:28;;;;;;;20.08;14.45;;;17.90;99.90;;;;;;5010407;28;20413;-48
2021/08/26 03:51:55;;;;;;;20.52;14.65;;;17.70;99.90;;;;;;4994688;28;20042;-50
2021/08/26 03:54:21;;;;;;;17.77;13.38;;;17.40;99.90;;;;;;5010214;28;20041;-48
2021/08/26 03:56:47;;;;;;;23.83;15.20;;;17.10;99.90;;;;;;5010195;28;20572;-52
2021/08/26 03:59:12;;;;;;;20.48;15.02;;;16.80;99.90;;;;;;5010107;28;20132;-50
2021/08/26 04:01:39;;;;;;;20.85;12.75;;;16.60;99.90;;;;;;4951960;28;20161;-50
2021/08/26 04:04:05;;;;;;;17.55;12.93;;;16.50;99.90;;;;;;5004910;28;20053;-50
2021/08/26 04:06:31;;;;;;;20.10;12.85;;;16.60;99.90;;;;;;5010762;28;20109;-49
2021/08/26 04:08:57;;;;;;;19.75;12.93;;;16.80;99.90;;;;;;5010409;28;20053;-50
2021/08/26 04:11:22;;;;;;;19.15;14.02;;;17.00;99.90;;;;;;5010339;28;20409;-51
2021/08/26 04:13:48;;;;;;;19.30;12.15;;;17.30;99.90;;;;;;4967646;28;20098;-51
2021/08/26 04:16:14;;;;;;;21.50;12.50;;;17.40;99.90;;;;;;5050670;28;20045;-49
2021/08/26 04:18:40;;;;;;;23.38;12.52;;;17.30;99.90;;;;;;5052813;28;20427;-50
2021/08/26 04:21:06;;;;;;;14.98;12.00;;;17.20;99.90;;;;;;5052514;28;20430;-51
2021/08/26 04:23:31;;;;;;;17.70;12.90;;;17.40;99.90;;;;;;5052640;28;20033;-48
2021/08/26 04:25:57;;;;;;;21.98;12.30;;;17.30;99.90;;;;;;5052467;28;20026;-49
2021/08/26 04:28:23;;;;;;;17.85;13.30;;;17.50;99.90;;;;;;5052509;28;20209;-49
2021/08/26 04:30:49;;;;;;;20.55;12.32;;;17.60;99.90;;;;;;5020206;28;20043;-50
2021/08/26 04:33:14;;;;;;;16.17;11.77;;;17.50;99.90;;;;;;4988346;28;20068;-52
2021/08/26 04:35:40;;;;;;;18.60;11.65;;;17.30;99.90;;;;;;5003197;28;20358;-50
2021/08/26 04:38:06;;;;;;;19.83;12.10;;;17.10;99.90;;;;;;5054828;28;20457;-52
2021/08/26 04:40:32;;;;;;;20.35;11.95;;;16.90;99.90;;;;;;5054991;28;20025;-51
2021/08/26 04:42:57;;;;;;;14.98;11.52;;;16.80;99.90;;;;;;5055957;28;20025;-48
2021/08/26 04:45:23;;;;;;;14.55;10.88;;;16.90;99.90;;;;;;5055986;28;20108;-50
2021/08/26 04:47:49;;;;;;;16.95;11.38;;;17.10;99.90;;;;;;5054492;28;20123;-48
2021/08/26 04:50:15;;;;;;;14.38;11.15;;;17.30;99.90;;;;;;5055716;28;20036;-48
2021/08/26 04:52:41;;;;;;;11.80;10.55;;;17.30;99.90;;;;;;5037480;28;20029;-48
2021/08/26 04:55:07;;;;;;;14.82;10.52;;;17.30;99.90;;;;;;5055592;28;20039;-50
2021/08/26 04:57:33;;;;;;;15.25;11.40;;;17.50;99.90;;;;;;5013781;28;20133;-51
2021/08/26 04:59:59;;;;;;;14.63;10.73;;;17.40;99.90;;;;;;4997709;28;20117;-48
2021/08/26 05:02:25;;;;;;;12.38;10.43;;;17.40;99.90;;;;;;5013693;28;20033;-48
2021/08/26 05:04:50;;;;;;;13.43;10.05;;;17.70;99.90;;;;;;5012766;28;20064;-50
2021/08/26 05:07:16;;;;;;;16.73;11.63;;;17.90;99.90;;;;;;4960963;28;20038;-51
2021/08/26 05:09:42;;;;;;;15.75;10.35;;;18.10;99.90;;;;;;4987981;28;20044;-48
2021/08/26 05:12:08;;;;;;;14.70;10.45;;;18.20;99.90;;;;;;4990594;28;20034;-51
2021/08/26 05:14:34;;;;;;;15.50;10.68;;;18.30;99.90;;;;;;4972159;28;20150;-48
2021/08/26 05:17:00;;;;;;;14.30;10.52;;;18.50;99.90;;;;;;5004564;28;20026;-48
2021/08/26 05:19:26;;;;;;;12.98;9.82;;;18.50;99.90;;;;;;5010976;28;20105;-51
2021/08/26 05:21:52;;;;;;;16.13;10.73;;;18.60;99.90;;;;;;5012417;28;20382;-49
2021/08/26 05:24:18;;;;;;;19.05;11.63;;;18.70;99.90;;;;;;5013013;28;20079;-51
2021/08/26 05:26:44;;;;;;;17.45;11.02;;;18.70;99.90;;;;;;4979201;28;20553;-48
2021/08/26 05:29:10;;;;;;;14.65;10.48;;;18.70;99.90;;;;;;4979785;28;20085;-51
2021/08/26 05:31:36;;;;;;;15.18;11.32;;;18.70;99.90;;;;;;5012177;28;20041;-49
2021/08/26 05:34:03;;;;;;;15.98;11.25;;;18.80;99.90;;;;;;5012529;28;20192;-48
2021/08/26 05:36:29;;;;;;;15.73;11.25;;;18.90;99.90;;;;;;5028015;28;20392;-51
2021/08/26 05:38:55;;;;;;;18.20;11.32;;;18.90;99.90;;;;;;5044966;28;20025;-49
2021/08/26 05:41:20;;;;;;;15.32;10.95;;;18.90;99.90;;;;;;5046311;28;20086;-51
2021/08/26 05:43:46;;;;;;;14.55;10.93;;;19.00;99.90;;;;;;5028928;28;20068;-48
2021/08/26 05:46:12;;;;;;;14.40;11.27;;;19.00;99.90;;;;;;5045454;28;20020;-51
2021/08/26 05:48:37;;;;;;;20.92;10.75;;;19.10;99.90;;;;;;5044690;28;20032;-50
2021/08/26 05:51:03;;;;;;;13.65;10.57;;;19.20;99.90;;;;;;5046064;28;20090;-50
2021/08/26 05:53:30;;;;;;;15.38;12.10;;;19.30;99.90;;;;;;5024336;28;20044;-49
2021/08/26 05:55:56;;;;;;;13.57;9.38;;;19.30;99.90;;;;;;5053498;28;20033;-47
2021/08/26 05:58:21;;;;;;;14.82;10.32;;;19.40;99.90;;;;;;5035697;28;20451;-47
2021/08/26 06:00:49;;;;;;;13.90;9.25;;;19.50;99.90;;;;;;5053657;28;20029;-47
2021/08/26 06:03:15;;;;;;;17.08;9.55;;;19.50;99.90;;;;;;5053679;28;20029;-49
2021/08/26 06:05:42;;;;;;;16.08;9.93;;;19.60;99.90;;;;;;5046061;28;20195;-49
2021/08/26 06:08:07;;;;;;;15.25;10.38;;;19.60;99.90;;;;;;5042712;28;20399;-50
2021/08/26 06:10:33;;;;;;;12.00;9.25;;;19.70;99.90;;;;;;5041276;28;20036;-51
2021/08/26 06:12:59;;;;;;;12.70;9.05;;;19.60;99.90;;;;;;5021069;28;20041;-47
2021/08/26 06:15:25;;;;;;;12.00;9.65;;;19.70;99.90;;;;;;5042291;28;20033;-50
2021/08/26 06:17:50;;;;;;;11.23;9.90;;;19.80;99.90;;;;;;5020075;28;20033;-51
2021/08/26 06:20:17;;;;;;;12.73;9.95;;;19.50;99.90;;;;;;5016014;28;20077;-52
2021/08/26 06:22:43;;;;;;;14.05;10.55;;;19.50;99.90;;;;;;5034592;28;20401;-51
2021/08/26 06:25:10;;;;;;;13.48;11.00;;;19.50;99.90;;;;;;4988573;28;20405;-51
2021/08/26 06:27:36;;;;;;;13.20;10.93;;;19.50;99.90;;;;;;5014394;28;20029;-50
2021/08/26 06:30:03;;;;;;;16.35;12.00;;;19.50;99.90;;;;;;5048590;28;20108;-50
2021/08/26 06:32:30;;;;;;;15.93;11.40;;;19.70;99.90;;;;;;5052571;28;20028;-50
2021/08/26 06:34:58;;;;;;;19.75;12.05;;;19.50;99.90;;;;;;5052863;28;20055;-49
2021/08/26 06:37:24;;;;;;;15.57;11.18;;;19.50;99.90;;;;;;5034684;28;20053;-49
2021/08/26 06:39:50;;;;;;;17.00;12.00;;;19.30;99.90;;;;;;5051169;28;20036;-51
2021/08/26 06:42:15;;;;;;;18.80;11.25;;;19.40;99.90;;;;;;5052561;28;20401;-51
2021/08/26 06:44:41;;;;;;;17.10;10.57;;;19.80;99.90;;;;;;5045483;28;20025;-49
2021/08/26 06:47:07;;;;;;;14.55;11.85;;;20.10;99.90;;;;;;5052064;28;20021;-49
2021/08/26 06:49:33;;;;;;;17.20;11.38;;;20.30;99.90;;;;;;5034212;28;20167;-48
2021/08/26 06:51:59;;;;;;;15.38;11.40;;;20.10;99.90;;;;;;5017565;28;20044;-49
2021/08/26 06:54:25;;;;;;;16.25;11.27;;;20.40;99.90;;;;;;5016958;28;20044;-48
2021/08/26 06:56:50;;;;;;;13.85;10.52;;;20.60;99.90;;;;;;5034103;28;20041;-50
2021/08/26 06:59:16;;;;;;;12.88;9.48;;;20.60;99.90;;;;;;5047101;28;20062;-52
2021/08/26 07:01:42;;;;;;;14.07;9.13;;;20.20;99.90;;;;;;5051153;28;20064;-49
2021/08/26 07:04:08;;;;;;;13.18;9.32;;;19.90;99.90;;;;;;5032891;28;20056;-49
2021/08/26 07:06:34;;;;;;;18.02;9.80;;;19.80;99.90;;;;;;5049906;28;20064;-51
2021/08/26 07:09:00;;;;;;;18.67;10.32;;;19.80;99.90;;;;;;5049039;28;20519;-48
2021/08/26 07:11:26;;;;;;;21.58;10.77;;;19.80;99.90;;;;;;5044079;28;20116;-53
2021/08/26 07:13:52;;;;;;;14.32;9.50;;;20.00;99.90;;;;;;5046604;28;20115;-48
2021/08/26 07:16:18;;;;;;;15.15;9.13;;;19.80;99.90;;;;;;5050099;28;20070;-47
2021/08/26 07:18:44;;;;;;;15.65;9.23;;;20.00;99.90;;;;;;5050126;28;20074;-48
2021/08/26 07:21:10;;;;;;;17.02;8.95;;;20.40;99.90;;;;;;5046525;28;20477;-52
2021/08/26 07:23:36;;;;;;;13.68;7.95;;;20.80;99.90;;;;;;5032867;28;20424;-52
2021/08/26 07:26:03;;;;;;;12.57;8.15;;;21.10;99.90;;;;;;5027840;28;20036;-50
2021/08/26 07:28:28;;;;;;;11.48;7.75;;;21.30;99.90;;;;;;5046325;28;20017;-51
2021/08/26 07:30:54;;;;;;;11.40;8.25;;;21.60;99.90;;;;;;5031253;28;20039;-52
2021/08/26 07:33:20;;;;;;;10.45;7.60;;;21.90;99.90;;;;;;5050713;28;20036;-51
2021/08/26 07:35:46;;;;;;;12.48;7.28;;;21.90;99.90;;;;;;4997366;28;20037;-50
2021/08/26 07:38:11;;;;;;;9.38;7.10;;;22.00;99.90;;;;;;5013991;28;20124;-48
2021/08/26 07:40:37;;;;;;;9.50;7.72;;;22.20;99.90;;;;;;5028648;28;20041;-51
2021/08/26 07:43:03;;;;;;;10.93;7.28;;;22.40;99.90;;;;;;5013869;28;20029;-48
2021/08/26 07:45:30;;;;;;;9.98;7.25;;;22.50;99.90;;;;;;5028910;28;20029;-50
2021/08/26 07:47:55;;;;;;;7.05;5.97;;;22.80;99.90;;;;;;5042188;28;20539;-49
2021/08/26 07:50:21;;;;;;;9.13;6.50;;;22.90;99.90;;;;;;5037501;28;20033;-50
2021/08/26 07:52:48;;;;;;;16.25;9.70;;;22.30;99.50;;;;;;4997176;28;20037;-49
2021/08/26 07:55:14;;;;;;;10.90;7.03;;;22.40;99.90;;;;;;5022172;28;20382;-50
2021/08/26 07:57:39;;;;;;;9.30;6.80;;;22.90;99.90;;;;;;5024265;28;20045;-49
2021/08/26 08:00:06;;;;;;;9.15;5.70;;;23.30;98.90;;;;;;5010246;28;20092;-49
2021/08/26 08:02:31;;;;;;;7.97;5.90;;;23.60;98.40;;;;;;4980191;28;20081;-49
2021/08/26 08:04:57;;;;;;;9.75;5.55;;;23.80;97.50;;;;;;5022848;28;20600;-50
2021/08/26 08:07:23;;;;;;;9.18;5.95;;;23.90;96.80;;;;;;5031815;28;20139;-49
2021/08/26 08:09:49;;;;;;;7.20;5.85;;;24.20;96.70;;;;;;5029025;28;20033;-49
2021/08/26 08:12:15;;;;;;;8.85;5.68;;;24.10;95.90;;;;;;4990978;28;20048;-49
2021/08/26 08:14:42;;;;;;;7.85;5.88;;;24.10;94.90;;;;;;5027461;28;20041;-52
2021/08/26 08:17:09;;;;;;;9.05;5.80;;;24.00;95.10;;;;;;4981797;28;20398;-49
2021/08/26 08:19:35;;;;;;;8.55;5.72;;;24.40;94.90;;;;;;5029150;28;20084;-49
2021/08/26 08:22:01;;;;;;;13.30;7.60;;;24.60;94.30;;;;;;4998294;28;20039;-51
2021/08/26 08:24:28;;;;;;;8.85;6.28;;;25.10;94.70;;;;;;5004287;28;20025;-50
2021/08/26 08:26:55;;;;;;;12.13;6.88;;;25.30;94.10;;;;;;5054006;28;20105;-50
2021/08/26 08:29:20;;;;;;;13.07;7.10;;;25.50;94.50;;;;;;5019751;28;20094;-50
2021/08/26 08:31:47;;;;;;;9.32;6.82;;;;;;;;;;5046949;28;20020;-50
2021/08/26 08:34:13;;;;;;;9.25;6.45;;;25.50;92.10;;;;;;5047589;28;20056;-49
2021/08/26 08:36:39;;;;;;;11.60;6.93;;;25.80;92.00;;;;;;5051160;28;20034;-48
2021/08/26 08:39:08;;;;;;;10.23;6.57;;;26.10;95.00;;;;;;5027562;28;20086;-50
2021/08/26 08:41:33;;;;;;;9.38;6.55;;;25.90;95.10;;;;;;5042547;28;20021;-49
2021/08/26 08:44:01;;;;;;;10.80;5.68;;;;;;;;;;5043870;28;20170;-49
2021/08/26 08:46:28;;;;;;;9.35;6.35;;;26.40;90.00;;;;;;5035175;28;20033;-49
2021/08/26 08:48:58;;;;;;;7.70;4.97;;;25.20;90.20;;;;;;5044341;28;20120;-49
2021/08/26 08:51:24;;;;;;;6.93;4.50;;;24.40;90.50;;;;;;5048593;28;20034;-49
2021/08/26 08:53:50;;;;;;;6.03;4.95;;;24.30;90.40;;;;;;5032198;28;20040;-50
2021/08/26 08:56:17;;;;;;;8.73;5.65;;;24.90;90.30;;;;;;5047493;28;20033;-49
2021/08/26 08:58:43;;;;;;;7.78;5.68;;;25.20;89.90;;;;;;5016636;28;20389;-50
2021/08/26 09:01:13;;;;;;;12.27;6.43;;;25.50;89.10;;;;;;5051280;28;20026;-48
2021/08/26 09:03:39;;;;;;;8.40;5.85;;;25.10;88.90;;;;;;5049771;28;20045;-49
2021/08/26 09:06:08;;;;;;;8.38;6.30;;;24.80;90.10;;;;;;5031332;28;20447;-48
2021/08/26 09:08:34;;;;;;;8.85;7.00;;;24.70;90.00;;;;;;5048592;28;20025;-49
2021/08/26 09:11:15;;;;;;;12.57;6.80;;;24.90;91.10;;;;;;5053548;28;20037;-50
2021/08/26 09:13:42;;;;;;;9.18;6.53;;;25.80;90.20;;;;;;5052678;28;20106;-49
2021/08/26 09:16:10;;;;;;;11.82;7.05;;;26.00;88.60;;;;;;4972972;28;20253;-50
2021/08/26 09:18:36;;;;;;;9.60;6.47;;;26.40;87.20;;;;;;4991497;28;20033;-48
2021/08/26 09:21:09;;;;;;;10.55;6.20;;;26.60;87.00;;;;;;4977507;28;20185;-48
2021/08/26 09:23:54;;;;;;;7.97;6.40;;;25.90;87.30;;;;;;5002336;28;20038;-49
2021/08/26 09:26:26;;;;;;;10.35;5.70;;;25.60;88.30;;;;;;5007461;28;20038;-49
2021/08/26 09:28:54;;;;;;;8.95;6.10;;;26.20;85.00;;;;;;4973804;28;20397;-49
2021/08/26 09:31:22;;;;;;;13.50;7.13;;;26.10;85.30;;;;;;4986123;28;20042;-50
2021/08/26 09:33:54;;;;;;;13.68;6.18;;;26.70;83.80;;;;;;5004483;28;20105;-49
2021/08/26 09:36:32;;;;;;;8.80;5.85;;;27.20;84.90;;;;;;4990368;28;20112;-49
2021/08/26 09:39:02;;;;;;;6.60;5.18;;;;;;;;;;4986741;28;20026;-49
2021/08/26 09:41:47;;;;;;;7.72;5.95;;;;;;;;;;4969723;28;20100;-49
2021/08/26 09:44:13;;;;;;;7.72;5.88;;;;;;;;;;4999823;28;20037;-49
2021/08/26 09:46:39;;;;;;;9.68;6.60;;;;;;;;;;4989202;28;20029;-48
2021/08/26 09:49:12;;;;;;;7.88;5.60;;;;;;;;;;5050704;28;20037;-50
2021/08/26 09:51:38;;;;;;;7.25;5.40;;;;;;;;;;5048293;28;20106;-49
2021/08/26 09:54:05;;;;;;;8.25;5.55;;;;;;;;;;5050461;28;20698;-50
2021/08/26 09:56:38;;;;;;;10.10;6.18;;;;;;;;;;5048288;28;20120;-49
2021/08/26 09:59:06;;;;;;;11.00;6.05;;;;;;;;;;5057718;28;20180;-49
2021/08/26 10:01:34;;;;;;;6.78;5.82;;;;;;;;;;5059497;28;20033;-50
2021/08/26 10:04:01;;;;;;;7.43;6.20;;;;;;;;;;5061201;28;20049;-50
2021/08/26 10:06:27;;;;;;;12.25;6.50;;;;;;;;;;5060651;28;20039;-50
2021/08/26 10:08:53;;;;;;;6.93;6.22;;;;;;;;;;5062667;28;20028;-48
2021/08/26 10:11:20;;;;;;;7.03;5.63;;;;;;;;;;5061951;28;20039;-49
2021/08/26 10:13:47;;;;;;;9.00;5.03;;;;;;;;;;5060862;28;20140;-50
2021/08/26 10:16:13;;;;;;;8.15;4.93;;;;;;;;;;5038430;28;20755;-49
2021/08/26 10:18:40;;;;;;;9.68;5.13;;;;;;;;;;5004392;28;20524;-49
2021/08/26 10:21:08;;;;;;;6.20;5.00;;;;;;;;;;5040199;28;20041;-50
2021/08/26 10:23:35;;;;;;;6.05;4.40;;;;;;;;;;5039990;28;20091;-48
2021/08/26 10:26:05;;;;;;;6.70;4.60;;;;;;;;;;5037595;28;20038;-49
2021/08/26 10:28:34;;;;;;;5.63;4.60;;;27.40;78.30;;;;;;5039657;28;20022;-47
2021/08/26 10:31:00;;;;;;;4.88;4.25;;;;;;;;;;5040728;28;20098;-50
2021/08/26 10:33:29;;;;;;;6.70;4.63;;;26.30;75.90;;;;;;5040806;28;20112;-49
2021/08/26 10:35:57;;;;;;;5.82;4.78;;;26.20;77.70;;;;;;4990856;28;20128;-50
2021/08/26 10:38:28;;;;;;;5.75;4.35;;;26.60;79.00;;;;;;4990120;28;20065;-52
2021/08/26 10:41:15;;;;;;;7.95;4.18;;;26.40;81.10;;;;;;4989802;28;20104;-49
2021/08/26 10:43:40;;;;;;;7.43;4.30;;;25.60;79.40;;;;;;4932861;29;20579;-51
2021/08/26 10:46:11;;;;;;;10.25;4.60;;;26.40;80.20;;;;;;4931899;29;20043;-48
2021/08/26 10:48:38;;;;;;;4.57;3.70;;;;;;;;;;4935765;29;20098;-50
2021/08/26 10:51:06;;;;;;;6.40;4.43;;;;;;;;;;4952082;29;20062;-49
2021/08/26 10:53:35;;;;;;;4.95;4.45;;;27.10;79.30;;;;;;4950497;28;20558;-50
2021/08/26 10:56:29;;;;;;;5.00;4.10;;;26.80;77.20;;;;;;4967378;28;20054;-50
2021/08/26 10:58:59;;;;;;;8.00;4.93;;;27.00;77.90;;;;;;4951039;28;20490;-49
2021/08/26 11:01:28;;;;;;;5.82;4.10;;;26.50;77.40;;;;;;4951746;29;20103;-49
2021/08/26 11:03:59;;;;;;;6.70;3.97;;;26.80;78.80;;;;;;4949387;28;20066;-52
2021/08/26 11:06:27;;;;;;;9.05;5.15;;;;;;;;;;4968883;28;20038;-50
2021/08/26 11:08:56;;;;;;;8.55;4.10;;;;;;;;;;4976210;28;20060;-48
2021/08/26 11:11:27;;;;;;;5.22;4.40;;;;;;;;;;5009775;28;20041;-48
2021/08/26 11:13:53;;;;;;;5.45;4.45;;;;;;;;;;5009610;28;20037;-50
2021/08/26 11:16:27;;;;;;;5.13;4.55;;;26.90;93.60;;;;;;5009967;28;20103;-48
2021/08/26 11:19:19;;;;;;;5.55;4.90;;;26.80;92.80;;;;;;5009560;28;20037;-48
2021/08/26 11:21:45;;;;;;;6.20;4.75;;;26.20;77.70;;;;;;5028982;28;20132;-51
2021/08/26 11:24:30;;;;;;;6.85;4.90;;;26.30;78.60;;;;;;5041876;28;20108;-52
2021/08/26 11:26:56;;;;;;;6.93;4.53;;;26.30;78.50;;;;;;5031965;28;20030;-48
2021/08/26 11:29:25;;;;;;;7.75;5.13;;;26.40;79.40;;;;;;5031862;28;20032;-52
2021/08/26 11:31:53;;;;;;;7.28;5.05;;;26.20;79.00;;;;;;5031635;28;20527;-48
2021/08/26 11:34:28;;;;;;;7.30;5.50;;;25.20;80.30;;;;;;5012930;28;20493;-53
2021/08/26 11:37:07;;;;;;;6.30;4.95;;;25.00;80.70;;;;;;5039729;28;20071;-52
2021/08/26 11:39:35;;;;;;;5.88;5.10;;;25.60;81.50;;;;;;5053276;28;20033;-50
2021/08/26 11:42:06;;;;;;;5.88;5.28;;;26.10;80.60;;;;;;5051480;28;20044;-52
2021/08/26 11:44:33;;;;;;;6.47;5.18;;;26.50;79.50;;;;;;5024273;28;20417;-51
2021/08/26 11:47:00;;;;;;;8.23;5.10;;;26.50;79.20;;;;;;5053981;28;20531;-51
2021/08/26 11:49:39;;;;;;;8.68;5.57;;;;;;;;;;5055419;28;20025;-50
2021/08/26 11:52:11;;;;;;;8.23;5.80;;;27.20;79.00;;;;;;5056024;28;20441;-50
2021/08/26 11:54:43;;;;;;;9.32;5.35;;;;;;;;;;5056020;28;20032;-52
2021/08/26 11:57:10;;;;;;;7.50;5.10;;;;;;;;;;5056084;28;20439;-49
2021/08/26 11:59:37;;;;;;;5.80;4.93;;;;;;;;;;5049050;28;20464;-49
2021/08/26 12:02:26;;;;;;;10.10;6.45;;;28.80;77.90;;;;;;5056042;28;20170;-54
2021/08/26 12:04:58;;;;;;;6.35;5.35;;;29.00;77.80;;;;;;5055599;28;20484;-52
2021/08/26 12:07:26;;;;;;;6.13;5.50;;;29.00;78.10;;;;;;5007789;28;20044;-50
2021/08/26 12:09:52;;;;;;;7.28;5.13;;;;;;;;;;5055954;28;20025;-49
2021/08/26 12:12:18;;;;;;;8.38;6.10;;;;;;;;;;5056558;28;20029;-51
2021/08/26 12:14:44;;;;;;;7.45;5.05;;;;;;;;;;5055582;28;20362;-52
2021/08/26 12:17:14;;;;;;;6.43;4.93;;;;;;;;;;5055396;28;20385;-53
2021/08/26 12:19:41;;;;;;;8.20;6.70;;;28.40;89.50;;;;;;5055614;28;20028;-52
2021/08/26 12:22:08;;;;;;;5.93;4.85;;;28.50;79.20;;;;;;5056063;28;20029;-52
2021/08/26 12:24:34;;;;;;;10.07;6.47;;;28.20;75.60;;;;;;5036434;28;20064;-49
2021/08/26 12:27:08;;;;;;;9.85;5.32;;;28.20;74.60;;;;;;5055571;28;20037;-50
2021/08/26 12:29:48;;;;;;;7.05;5.20;;;28.30;74.00;;;;;;5055388;28;20032;-53
2021/08/26 12:32:43;;;;;;;6.55;5.10;;;28.20;74.90;;;;;;5055529;28;20338;-49
2021/08/26 12:35:13;;;;;;;6.28;5.45;;;28.30;75.50;;;;;;4993673;28;20430;-49
2021/08/26 12:38:00;;;;;;;6.30;5.70;;;28.50;75.60;;;;;;4986179;28;20034;-51
2021/08/26 12:40:29;;;;;;;5.75;5.15;;;28.50;75.30;;;;;;4985982;28;20042;-53
2021/08/26 12:43:02;;;;;;;6.50;5.30;;;28.80;84.50;;;;;;4943740;28;20168;-53
2021/08/26 12:45:28;;;;;;;7.53;5.80;;;;;;;;;;4961003;28;20078;-52
2021/08/26 12:47:54;;;;;;;8.70;5.65;;;29.00;74.90;;;;;;4976278;28;20491;-49
2021/08/26 12:50:33;;;;;;;6.63;5.35;;;29.20;74.60;;;;;;4953448;28;20050;-52
2021/08/26 12:52:59;;;;;;;6.68;5.13;;;;;;;;;;4975849;28;20054;-53